Time;durP1;ratioP1;P1;durP2;ratioP2;P2;SDS_P1;SDS_P2;PMS_P1;PMS_P2;Temp;Humidity;BMP_temperature;BMP_pressure;BME280_temperature;BME280_humidity;BME280_pressure;Samples;Min_cycle;Max_cycle;Signal;HPM_P1;HPM_P2
2022/03/27 00:00:15;;;;;;;18.83;15.90;;;10.70;43.40;;;;;;6226638;28;20488;-63
2022/03/27 00:03:18;;;;;;;20.73;16.73;;;10.70;43.50;;;;;;6224463;28;21191;-63
2022/03/27 00:06:22;;;;;;;21.70;16.90;;;10.70;43.40;;;;;;6212294;28;20813;-63
2022/03/27 00:09:26;;;;;;;25.00;17.87;;;10.50;43.50;;;;;;6226862;28;20479;-65
2022/03/27 00:12:29;;;;;;;20.03;16.07;;;10.50;44.30;;;;;;6217981;28;20480;-66
2022/03/27 00:15:32;;;;;;;22.43;18.80;;;10.50;43.60;;;;;;6227835;28;20488;-65
2022/03/27 00:18:36;;;;;;;23.40;18.27;;;10.50;43.80;;;;;;6228024;28;20487;-64
2022/03/27 00:21:41;;;;;;;21.80;17.00;;;10.40;43.60;;;;;;6228280;28;20476;-64
2022/03/27 00:24:45;;;;;;;21.90;17.10;;;10.40;43.60;;;;;;6226805;28;20618;-64
2022/03/27 00:27:48;;;;;;;23.20;17.87;;;10.40;43.50;;;;;;6227163;28;20483;-65
2022/03/27 00:30:51;;;;;;;25.80;18.00;;;10.40;43.50;;;;;;6227778;28;20460;-64
2022/03/27 00:33:54;;;;;;;22.43;16.60;;;10.40;43.40;;;;;;6227708;28;20468;-65
2022/03/27 00:36:58;;;;;;;18.73;16.30;;;10.30;43.40;;;;;;6226736;28;20455;-65
2022/03/27 00:40:03;;;;;;;21.97;16.90;;;10.40;43.50;;;;;;6227349;28;20834;-64
2022/03/27 00:43:07;;;;;;;22.13;16.67;;;10.40;43.50;;;;;;6228956;28;20468;-65
2022/03/27 00:46:11;;;;;;;22.90;16.90;;;10.30;43.40;;;;;;6228827;28;20913;-65
2022/03/27 00:49:14;;;;;;;20.73;15.17;;;10.30;43.50;;;;;;6229741;28;20479;-62
2022/03/27 00:52:17;;;;;;;17.87;15.47;;;10.20;44.10;;;;;;6225821;28;20512;-63
2022/03/27 00:55:22;;;;;;;19.50;15.30;;;10.20;44.50;;;;;;6212464;28;20475;-64
2022/03/27 00:58:25;;;;;;;20.50;15.93;;;10.20;43.70;;;;;;6212399;28;20473;-63
2022/03/27 01:01:35;;;;;;;20.60;13.63;;;10.20;44.40;;;;;;6219117;28;20473;-63
2022/03/27 01:04:45;;;;;;;18.53;15.03;;;10.10;43.70;;;;;;6219031;28;20473;-63
2022/03/27 01:07:48;;;;;;;18.43;15.10;;;10.00;43.70;;;;;;6213425;28;20559;-63
2022/03/27 01:10:51;;;;;;;20.10;15.30;;;10.00;43.90;;;;;;6213908;28;20476;-63
2022/03/27 01:13:56;;;;;;;20.30;15.10;;;9.90;44.90;;;;;;6213035;28;20472;-62
2022/03/27 01:17:01;;;;;;;17.80;14.70;;;9.90;44.90;;;;;;6212807;28;20807;-62
2022/03/27 01:20:06;;;;;;;17.83;14.40;;;9.90;44.90;;;;;;6202375;28;20804;-62
2022/03/27 01:23:11;;;;;;;18.57;15.47;;;9.80;45.00;;;;;;6201869;28;20855;-62
2022/03/27 01:26:15;;;;;;;19.90;15.30;;;9.70;45.30;;;;;;6202263;28;20523;-62
2022/03/27 01:29:18;;;;;;;17.10;14.00;;;9.60;45.60;;;;;;6202094;28;20482;-63
2022/03/27 01:32:21;;;;;;;18.20;14.83;;;9.50;46.80;;;;;;6201987;28;20539;-63
2022/03/27 01:35:25;;;;;;;21.30;16.23;;;9.30;46.10;;;;;;6202073;28;20476;-63
2022/03/27 01:38:28;;;;;;;25.30;16.63;;;9.20;46.60;;;;;;6201897;28;20812;-61
2022/03/27 01:41:32;;;;;;;19.17;14.87;;;9.10;47.60;;;;;;6201873;28;20473;-62
2022/03/27 01:44:35;;;;;;;25.20;16.60;;;9.00;47.30;;;;;;6201810;28;20941;-61
2022/03/27 01:47:39;;;;;;;16.60;14.17;;;9.00;47.50;;;;;;6201818;28;20481;-61
2022/03/27 01:50:43;;;;;;;21.33;15.60;;;9.00;47.60;;;;;;6201711;28;20956;-61
2022/03/27 01:53:46;;;;;;;24.37;16.23;;;8.90;47.40;;;;;;6201614;28;20535;-61
2022/03/27 01:56:49;;;;;;;17.90;14.20;;;8.90;47.40;;;;;;6201507;28;20795;-61
2022/03/27 01:59:53;;;;;;;16.80;13.37;;;8.90;48.10;;;;;;6201650;28;20845;-61
2022/03/27 02:02:56;;;;;;;14.47;12.87;;;8.90;47.60;;;;;;6201602;28;20473;-61
2022/03/27 02:06:01;;;;;;;19.47;14.07;;;8.80;47.70;;;;;;6201641;28;20473;-61
2022/03/27 02:09:05;;;;;;;20.50;14.77;;;8.80;47.90;;;;;;6201492;28;20484;-61
2022/03/27 02:12:09;;;;;;;16.33;13.73;;;8.80;48.00;;;;;;6201441;28;20485;-61
2022/03/27 02:15:13;;;;;;;18.93;14.13;;;8.70;47.90;;;;;;6201447;28;20480;-60
2022/03/27 02:18:17;;;;;;;23.20;14.30;;;8.70;48.00;;;;;;6202257;28;20477;-60
2022/03/27 02:21:21;;;;;;;16.50;13.47;;;8.70;48.00;;;;;;6198587;28;20821;-60
2022/03/27 02:24:24;;;;;;;19.50;14.30;;;8.70;48.50;;;;;;6201404;28;20481;-60
2022/03/27 02:27:28;;;;;;;20.10;12.80;;;8.70;47.90;;;;;;6201568;28;20559;-60
2022/03/27 02:30:31;;;;;;;15.10;13.13;;;8.70;47.90;;;;;;6201308;28;20590;-60
2022/03/27 02:33:35;;;;;;;17.47;13.50;;;8.60;47.90;;;;;;6201531;28;20488;-60
2022/03/27 02:36:40;;;;;;;18.97;14.30;;;8.60;48.00;;;;;;6201154;28;20492;-60
2022/03/27 02:39:44;;;;;;;18.90;13.90;;;8.60;48.20;;;;;;6200854;28;20480;-61
2022/03/27 02:42:47;;;;;;;15.83;13.77;;;8.60;48.20;;;;;;6200866;28;20477;-61
2022/03/27 02:45:51;;;;;;;16.57;14.00;;;8.60;48.20;;;;;;6201094;28;20476;-62
2022/03/27 02:48:54;;;;;;;16.47;12.90;;;8.60;48.20;;;;;;6200929;28;20441;-60
2022/03/27 02:51:58;;;;;;;14.20;12.80;;;8.70;48.00;;;;;;6200516;28;20462;-60
2022/03/27 02:55:01;;;;;;;20.00;13.77;;;8.60;48.00;;;;;;6201072;28;20461;-61
2022/03/27 02:58:05;;;;;;;14.90;13.23;;;8.60;48.00;;;;;;6200642;28;20445;-61
2022/03/27 03:01:08;;;;;;;12.67;10.90;;;8.60;48.10;;;;;;6203762;28;21019;-61
2022/03/27 03:04:11;;;;;;;13.53;11.63;;;8.50;48.20;;;;;;6205590;28;20808;-61
2022/03/27 03:07:18;;;;;;;14.97;12.60;;;8.50;48.10;;;;;;6205590;28;20952;-61
2022/03/27 03:10:21;;;;;;;16.60;11.80;;;8.40;48.30;;;;;;6205455;28;20972;-61
2022/03/27 03:13:24;;;;;;;17.70;15.33;;;8.40;48.50;;;;;;6205539;28;20477;-61
2022/03/27 03:16:28;;;;;;;20.40;15.40;;;8.40;48.70;;;;;;6205372;28;20469;-61
2022/03/27 03:19:32;;;;;;;17.53;14.90;;;8.40;48.60;;;;;;6205211;28;20477;-61
2022/03/27 03:22:37;;;;;;;21.40;15.57;;;8.30;48.70;;;;;;6196042;28;20480;-61
2022/03/27 03:25:42;;;;;;;17.03;13.90;;;8.30;48.90;;;;;;6205202;28;20472;-61
2022/03/27 03:29:05;;;;;;;18.03;13.90;;;8.30;48.90;;;;;;6204870;28;20712;-61
2022/03/27 03:32:09;;;;;;;17.10;12.50;;;8.20;48.90;;;;;;6205406;28;20511;-61
2022/03/27 03:35:12;;;;;;;14.03;12.50;;;8.20;49.30;;;;;;6205169;28;20483;-61
2022/03/27 03:38:33;;;;;;;14.20;12.70;;;8.10;49.50;;;;;;6205286;28;20477;-61
2022/03/27 03:41:37;;;;;;;15.57;13.27;;;8.10;49.60;;;;;;6204885;28;20847;-62
2022/03/27 03:44:58;;;;;;;15.90;13.67;;;8.10;49.70;;;;;;6205167;28;20480;-59
2022/03/27 03:48:03;;;;;;;15.90;14.20;;;8.00;50.00;;;;;;6204925;28;20480;-61
2022/03/27 03:51:06;;;;;;;15.70;12.93;;;8.00;50.30;;;;;;6204918;28;20535;-61
2022/03/27 03:54:11;;;;;;;19.97;14.67;;;8.00;50.50;;;;;;6204622;28;20480;-61
2022/03/27 03:57:14;;;;;;;14.93;13.27;;;7.90;50.60;;;;;;6204786;28;20836;-62
2022/03/27 04:00:17;;;;;;;18.40;13.77;;;7.80;50.20;;;;;;6204541;28;20476;-62
2022/03/27 04:03:20;;;;;;;17.47;14.57;;;7.80;50.40;;;;;;6204258;28;20492;-61
2022/03/27 04:06:23;;;;;;;16.40;13.73;;;7.70;50.50;;;;;;6204264;28;21082;-62
2022/03/27 04:09:29;;;;;;;20.57;16.47;;;7.70;50.60;;;;;;6204480;28;20473;-60
2022/03/27 04:12:32;;;;;;;20.70;16.13;;;7.80;50.70;;;;;;6203919;28;20480;-60
2022/03/27 04:15:35;;;;;;;21.50;16.30;;;7.70;50.70;;;;;;6204063;28;20473;-60
2022/03/27 04:18:57;;;;;;;18.87;13.93;;;7.80;50.80;;;;;;6228769;28;20483;-59
2022/03/27 04:22:00;;;;;;;14.50;12.57;;;7.80;50.50;;;;;;6229047;28;20491;-59
2022/03/27 04:25:05;;;;;;;13.63;11.30;;;7.90;51.00;;;;;;6225429;28;20529;-59
2022/03/27 04:28:10;;;;;;;18.87;14.37;;;7.80;50.20;;;;;;6229127;28;20455;-59
2022/03/27 04:31:14;;;;;;;13.43;11.90;;;7.80;50.40;;;;;;6228583;28;20460;-59
2022/03/27 04:34:17;;;;;;;16.40;12.73;;;7.80;50.60;;;;;;6228456;28;20514;-59
2022/03/27 04:37:20;;;;;;;14.23;11.97;;;7.80;50.70;;;;;;6228043;28;20530;-59
2022/03/27 04:40:25;;;;;;;14.20;12.30;;;7.80;50.70;;;;;;6225138;28;20974;-61
2022/03/27 04:43:29;;;;;;;14.60;12.53;;;7.80;50.60;;;;;;6221100;28;20472;-61
2022/03/27 04:46:32;;;;;;;14.80;12.73;;;7.70;50.70;;;;;;6203716;28;20956;-61
2022/03/27 04:49:35;;;;;;;20.10;13.70;;;7.70;50.70;;;;;;6203615;28;20837;-61
2022/03/27 04:52:38;;;;;;;18.97;15.20;;;7.70;50.70;;;;;;6202750;28;20477;-61
2022/03/27 04:55:42;;;;;;;20.30;15.93;;;7.70;50.70;;;;;;6203017;28;20472;-61
2022/03/27 04:58:45;;;;;;;19.80;14.97;;;7.70;51.40;;;;;;6203513;28;20484;-61
2022/03/27 05:01:48;;;;;;;18.97;16.20;;;7.60;50.80;;;;;;6202887;28;20953;-61
2022/03/27 05:04:52;;;;;;;17.23;15.30;;;7.70;50.90;;;;;;6202826;28;21138;-61
2022/03/27 05:07:55;;;;;;;17.93;15.13;;;7.70;51.30;;;;;;6202675;28;20485;-61
2022/03/27 05:10:59;;;;;;;13.60;12.30;;;7.70;50.70;;;;;;6202784;28;20812;-62
2022/03/27 05:14:03;;;;;;;17.23;12.80;;;7.70;51.30;;;;;;6202785;28;20493;-62
2022/03/27 05:17:06;;;;;;;14.40;11.43;;;7.80;50.70;;;;;;6202630;28;20844;-63
2022/03/27 05:20:10;;;;;;;17.40;12.67;;;7.80;50.50;;;;;;6202730;28;20465;-62
2022/03/27 05:23:13;;;;;;;15.17;12.17;;;7.80;50.40;;;;;;6201352;28;20525;-60
2022/03/27 05:26:17;;;;;;;14.93;12.70;;;7.90;50.50;;;;;;6225619;28;20487;-60
2022/03/27 05:29:21;;;;;;;14.47;12.93;;;7.80;50.30;;;;;;6226638;28;20948;-59
2022/03/27 05:32:24;;;;;;;16.77;11.53;;;7.90;50.30;;;;;;6209870;28;20571;-59
2022/03/27 05:35:27;;;;;;;13.90;11.73;;;8.00;50.30;;;;;;6202677;28;20945;-59
2022/03/27 05:38:30;;;;;;;16.10;11.87;;;8.00;50.30;;;;;;6202286;28;20487;-60
2022/03/27 05:41:35;;;;;;;15.23;12.43;;;8.10;50.10;;;;;;6202040;28;20464;-60
2022/03/27 05:44:38;;;;;;;17.50;12.40;;;8.10;50.00;;;;;;6192843;28;20516;-60
2022/03/27 05:47:42;;;;;;;12.90;11.60;;;8.20;49.70;;;;;;6190238;28;20485;-60
2022/03/27 05:50:45;;;;;;;14.33;12.10;;;8.30;49.70;;;;;;6188008;28;20485;-62
2022/03/27 05:53:48;;;;;;;15.77;12.40;;;8.30;49.70;;;;;;6192400;28;20473;-62
2022/03/27 05:56:53;;;;;;;14.80;12.53;;;8.40;49.80;;;;;;6201522;28;21016;-60
2022/03/27 05:59:56;;;;;;;15.40;11.83;;;8.40;50.40;;;;;;6201767;28;20480;-59
2022/03/27 06:02:59;;;;;;;16.43;12.07;;;8.50;49.50;;;;;;6201634;28;20480;-59
2022/03/27 06:06:02;;;;;;;15.77;11.70;;;8.60;49.10;;;;;;6204304;28;20516;-59
2022/03/27 06:09:05;;;;;;;15.87;11.43;;;8.60;49.10;;;;;;6203892;28;20473;-61
2022/03/27 06:12:12;;;;;;;20.93;11.67;;;8.70;48.70;;;;;;6203466;28;20985;-61
2022/03/27 06:15:15;;;;;;;18.73;12.40;;;8.70;48.80;;;;;;6201962;28;20473;-61
2022/03/27 06:18:19;;;;;;;16.13;12.53;;;8.80;48.70;;;;;;6202547;28;20481;-61
2022/03/27 06:21:22;;;;;;;14.80;11.70;;;8.80;48.70;;;;;;6203789;28;20802;-61
2022/03/27 06:24:25;;;;;;;14.70;12.33;;;9.00;48.40;;;;;;6201482;28;20497;-62
2022/03/27 06:27:29;;;;;;;19.60;12.70;;;9.10;48.10;;;;;;6201522;28;20469;-62
2022/03/27 06:30:34;;;;;;;16.03;12.60;;;9.30;48.00;;;;;;6201212;28;20484;-61
2022/03/27 06:33:37;;;;;;;16.50;11.90;;;9.60;47.60;;;;;;6201262;28;20481;-62
2022/03/27 06:36:41;;;;;;;14.40;12.60;;;9.90;47.10;;;;;;6196727;28;20484;-61
2022/03/27 06:39:44;;;;;;;17.43;11.00;;;10.70;46.00;;;;;;6205966;28;20541;-62
2022/03/27 06:42:50;;;;;;;12.97;11.63;;;12.40;43.50;;;;;;6205865;28;20957;-62
2022/03/27 06:45:53;;;;;;;16.37;12.63;;;14.30;40.20;;;;;;6230426;28;20849;-64
2022/03/27 06:48:57;;;;;;;15.73;13.10;;;16.00;37.10;;;;;;6230494;28;20448;-62
2022/03/27 06:52:00;;;;;;;15.80;12.30;;;17.40;34.70;;;;;;6230491;28;20464;-62
2022/03/27 06:55:05;;;;;;;16.23;12.37;;;18.70;33.00;;;;;;6230134;28;20467;-63
2022/03/27 06:58:10;;;;;;;16.93;12.97;;;20.00;31.00;;;;;;6230010;28;20911;-63
2022/03/27 07:04:34;;;;;;;16.17;14.10;;;22.10;28.00;;;;;;6229848;28;20229;-60
2022/03/27 07:07:37;;;;;;;15.37;13.23;;;23.20;27.40;;;;;;6230071;28;20232;-61
2022/03/27 07:10:41;;;;;;;17.87;16.17;;;24.10;26.10;;;;;;6230537;28;20257;-64
2022/03/27 07:13:46;;;;;;;17.10;15.30;;;24.90;25.30;;;;;;6230075;28;20324;-63
2022/03/27 07:16:49;;;;;;;15.67;14.03;;;25.60;24.90;;;;;;6229920;28;20297;-64
2022/03/27 07:19:52;;;;;;;15.70;14.30;;;26.50;23.80;;;;;;6229921;28;20692;-63
2022/03/27 07:22:57;;;;;;;16.87;15.13;;;27.30;23.10;;;;;;6229237;28;20283;-63
2022/03/27 07:26:01;;;;;;;16.23;14.63;;;28.10;22.00;;;;;;6230172;28;20233;-61
2022/03/27 07:29:08;;;;;;;17.37;15.63;;;28.70;21.20;;;;;;6229528;28;20228;-62
2022/03/27 07:32:12;;;;;;;17.83;16.10;;;29.20;20.90;;;;;;6229709;28;20299;-62
2022/03/27 07:35:17;;;;;;;17.33;15.83;;;29.90;20.10;;;;;;6229384;28;20303;-61
2022/03/27 07:38:20;;;;;;;18.20;16.50;;;30.50;19.50;;;;;;6225106;28;20237;-63
2022/03/27 07:41:23;;;;;;;18.33;16.40;;;30.90;19.10;;;;;;6229388;28;20298;-63
2022/03/27 07:44:28;;;;;;;17.90;16.30;;;31.70;18.50;;;;;;6229478;28;20248;-62
2022/03/27 07:47:31;;;;;;;16.67;14.90;;;32.30;18.60;;;;;;6228777;28;20295;-65
2022/03/27 07:50:35;;;;;;;17.60;15.98;;;33.00;17.70;;;;;;6229587;28;20232;-62
2022/03/27 07:53:38;;;;;;;19.88;17.85;;;33.20;17.30;;;;;;6229381;28;20259;-65
2022/03/27 07:56:41;;;;;;;16.55;14.95;;;33.70;16.70;;;;;;6230045;28;20240;-63
2022/03/27 07:59:45;;;;;;;17.65;16.05;;;34.50;16.30;;;;;;6230079;28;20228;-64
2022/03/27 08:02:48;;;;;;;18.05;16.45;;;35.00;16.40;;;;;;6231494;28;20241;-65
2022/03/27 08:05:52;;;;;;;18.73;16.98;;;35.40;15.40;;;;;;6230405;28;20254;-65
2022/03/27 08:08:56;;;;;;;19.63;17.65;;;36.10;15.40;;;;;;6228852;28;20239;-63
2022/03/27 08:11:59;;;;;;;17.90;16.40;;;36.50;14.90;;;;;;6229815;28;20236;-63
2022/03/27 08:15:04;;;;;;;18.25;16.55;;;36.80;14.50;;;;;;6229804;28;20240;-65
2022/03/27 08:18:08;;;;;;;17.30;15.60;;;37.30;14.40;;;;;;6235969;28;20242;-64
2022/03/27 08:21:11;;;;;;;18.25;16.63;;;37.90;14.20;;;;;;6233195;28;20644;-64
2022/03/27 08:24:14;;;;;;;18.23;16.40;;;38.20;13.80;;;;;;6230626;28;20240;-62
2022/03/27 08:27:17;;;;;;;18.52;16.52;;;38.60;13.40;;;;;;6228957;28;20240;-62
2022/03/27 08:30:24;;;;;;;18.77;17.27;;;39.10;13.00;;;;;;6221352;28;20225;-64
2022/03/27 08:33:27;;;;;;;18.55;16.95;;;39.60;12.80;;;;;;6209696;28;20232;-64
2022/03/27 08:36:30;;;;;;;18.75;17.05;;;39.30;12.90;;;;;;6208237;28;20224;-63
2022/03/27 08:39:33;;;;;;;17.88;16.05;;;39.90;12.80;;;;;;6215811;28;20229;-64
2022/03/27 08:42:37;;;;;;;18.15;16.65;;;40.40;12.50;;;;;;6218299;28;20579;-64
2022/03/27 08:45:42;;;;;;;18.13;16.33;;;41.30;12.40;;;;;;6214594;28;20221;-64
2022/03/27 08:48:50;;;;;;;18.63;16.90;;;41.80;12.10;;;;;;6219438;28;20708;-63
2022/03/27 08:51:57;;;;;;;19.20;17.50;;;42.00;11.90;;;;;;6215212;28;20240;-63
2022/03/27 08:55:06;;;;;;;17.45;15.80;;;42.60;11.80;;;;;;6197612;28;20220;-63
2022/03/27 08:58:11;;;;;;;19.63;17.77;;;43.30;11.50;;;;;;6215869;28;20202;-63
2022/03/27 09:01:17;;;;;;;19.50;17.90;;;43.40;11.60;;;;;;6215439;28;20641;-63
2022/03/27 09:04:21;;;;;;;17.90;16.42;;;44.30;11.30;;;;;;6213081;28;20670;-63
2022/03/27 09:07:24;;;;;;;18.45;16.85;;;44.60;11.10;;;;;;6206666;28;20224;-63
2022/03/27 09:10:29;;;;;;;19.10;17.60;;;44.70;10.80;;;;;;6214807;28;20540;-64
2022/03/27 09:13:32;;;;;;;20.20;18.30;;;43.80;11.00;;;;;;6215699;28;20228;-63
2022/03/27 09:17:02;;;;;;;19.55;17.58;;;44.30;11.20;;;;;;6213781;28;20231;-64
2022/03/27 09:20:06;;;;;;;19.50;17.90;;;45.10;10.90;;;;;;6215899;28;20600;-62
2022/03/27 09:23:21;;;;;;;20.02;18.23;;;45.70;10.60;;;;;;6213877;28;20232;-62
2022/03/27 09:26:25;;;;;;;18.63;17.30;;;45.10;10.80;;;;;;6216037;28;20221;-62
2022/03/27 09:29:28;;;;;;;20.63;18.65;;;45.60;10.80;;;;;;6213057;28;20279;-65
2022/03/27 09:32:35;;;;;;;20.70;18.80;;;45.80;10.50;;;;;;6219113;28;20229;-65
2022/03/27 09:35:39;;;;;;;22.08;20.08;;;44.80;10.90;;;;;;6212252;28;20232;-65
2022/03/27 09:38:56;;;;;;;23.00;21.10;;;43.70;11.20;;;;;;6214794;28;20233;-65
2022/03/27 09:42:01;;;;;;;23.23;21.00;;;43.80;11.40;;;;;;6214406;28;20305;-65
2022/03/27 09:45:14;;;;;;;21.33;19.40;;;44.60;10.90;;;;;;6212719;28;20758;-66
2022/03/27 09:48:20;;;;;;;22.60;20.70;;;44.80;11.10;;;;;;6216513;28;20574;-65
2022/03/27 09:51:23;;;;;;;22.80;20.63;;;45.70;10.80;;;;;;6210190;28;20230;-64
2022/03/27 09:54:28;;;;;;;22.40;20.70;;;45.30;10.80;;;;;;6211797;28;20229;-64
2022/03/27 09:57:33;;;;;;;23.90;21.70;;;43.70;10.70;;;;;;6223894;28;20232;-64
2022/03/27 10:00:36;;;;;;;22.95;21.08;;;42.90;10.90;;;;;;6201398;28;20271;-62
2022/03/27 10:04:02;;;;;;;25.23;23.08;;;44.10;11.00;;;;;;6204735;28;20672;-68
2022/03/27 10:07:18;;;;;;;25.33;22.92;;;44.20;10.70;;;;;;6225513;28;20228;-66
2022/03/27 10:10:22;;;;;;;25.95;23.67;;;45.20;10.30;;;;;;6201692;28;20292;-68
2022/03/27 10:13:30;;;;;;;24.13;22.23;;;45.50;9.80;;;;;;6217796;28;20228;-64
2022/03/27 10:16:34;;;;;;;27.02;24.73;;;45.80;9.80;;;;;;6220480;28;20304;-63
2022/03/27 10:19:45;;;;;;;24.65;22.73;;;45.00;9.80;;;;;;6189823;28;20221;-64
2022/03/27 10:22:50;;;;;;;25.27;22.92;;;44.80;10.20;;;;;;6197796;28;20727;-64
2022/03/27 10:25:55;;;;;;;25.33;23.08;;;44.10;10.00;;;;;;6198032;28;20273;-64
2022/03/27 10:28:59;;;;;;;28.10;25.95;;;42.10;10.60;;;;;;6179671;28;20234;-64
2022/03/27 10:32:04;;;;;;;24.77;22.55;;;40.80;11.10;;;;;;6192309;28;20240;-64
2022/03/27 10:35:30;;;;;;;25.25;23.17;;;37.80;12.10;;;;;;6194778;28;20309;-64
2022/03/27 10:38:46;;;;;;;25.63;23.38;;;36.10;13.00;;;;;;6200740;28;20225;-64
2022/03/27 10:41:59;;;;;;;24.60;22.13;;;34.50;14.00;;;;;;6200541;28;20563;-64
2022/03/27 10:45:07;;;;;;;24.50;22.20;;;33.20;14.10;;;;;;6201708;28;20283;-63
2022/03/27 10:48:13;;;;;;;23.65;21.45;;;31.70;15.40;;;;;;6201756;28;20240;-63
2022/03/27 10:51:39;;;;;;;24.83;22.55;;;30.90;15.80;;;;;;6191505;28;20243;-63
2022/03/27 10:55:00;;;;;;;26.08;23.45;;;30.10;16.90;;;;;;6201236;28;20229;-63
2022/03/27 10:58:27;;;;;;;25.73;23.15;;;29.50;17.50;;;;;;6201230;28;20229;-63
2022/03/27 11:01:42;;;;;;;23.13;20.88;;;29.00;17.70;;;;;;6200575;28;20631;-63
2022/03/27 11:04:46;;;;;;;25.17;21.97;;;28.90;17.80;;;;;;6200295;28;20249;-63
2022/03/27 11:07:50;;;;;;;24.70;22.00;;;28.80;17.80;;;;;;6208059;28;20232;-64
2022/03/27 11:10:58;;;;;;;25.93;23.20;;;27.50;18.20;;;;;;6225266;28;20271;-63
2022/03/27 11:14:01;;;;;;;25.37;21.67;;;27.00;18.60;;;;;;6224849;28;20236;-64
2022/03/27 11:17:12;;;;;;;25.43;22.73;;;26.60;18.90;;;;;;6225226;28;20232;-63
2022/03/27 11:20:50;;;;;;;24.03;21.50;;;26.60;19.10;;;;;;6224784;28;20247;-62
2022/03/27 11:23:56;;;;;;;24.07;21.50;;;26.70;18.90;;;;;;6208205;28;20244;-62
2022/03/27 11:26:59;;;;;;;23.80;21.40;;;26.90;18.90;;;;;;6229782;28;20237;-62
2022/03/27 11:30:10;;;;;;;22.07;19.83;;;26.30;19.30;;;;;;6229287;28;20239;-62
2022/03/27 11:33:20;;;;;;;22.10;19.90;;;26.10;19.70;;;;;;6233046;28;20255;-62
2022/03/27 11:36:25;;;;;;;24.87;20.03;;;25.50;20.40;;;;;;6235243;28;20228;-62
2022/03/27 11:39:35;;;;;;;23.20;20.80;;;25.70;20.30;;;;;;6233187;28;20243;-62
2022/03/27 11:42:38;;;;;;;23.43;20.53;;;25.90;20.10;;;;;;6230372;28;20271;-63
2022/03/27 11:45:44;;;;;;;22.50;20.20;;;25.90;20.10;;;;;;6231117;28;20237;-63
2022/03/27 11:48:53;;;;;;;23.17;20.67;;;25.70;20.20;;;;;;6233875;28;20228;-63
2022/03/27 11:52:07;;;;;;;23.80;21.40;;;25.40;20.60;;;;;;6231087;28;20240;-64
2022/03/27 11:55:13;;;;;;;20.40;18.40;;;25.70;20.30;;;;;;6229331;28;20245;-64
2022/03/27 11:58:20;;;;;;;22.27;19.73;;;25.70;20.70;;;;;;6229188;28;20237;-63
2022/03/27 12:01:25;;;;;;;23.40;20.93;;;25.80;20.60;;;;;;6228592;28;20685;-64
2022/03/27 12:04:29;;;;;;;23.10;20.70;;;26.10;20.30;;;;;;6221231;28;20224;-63
2022/03/27 12:07:52;;;;;;;21.70;19.60;;;26.00;20.30;;;;;;6211481;28;20229;-63
2022/03/27 12:10:57;;;;;;;21.10;18.90;;;26.20;20.20;;;;;;6204243;28;20241;-63
2022/03/27 12:14:08;;;;;;;22.37;20.10;;;26.40;20.20;;;;;;6209026;28;20237;-63
2022/03/27 12:17:11;;;;;;;21.30;19.27;;;26.50;20.00;;;;;;6203778;28;20260;-63
2022/03/27 12:20:15;;;;;;;21.53;19.40;;;26.40;20.10;;;;;;6203413;28;20225;-64
2022/03/27 12:23:20;;;;;;;23.17;20.87;;;26.30;19.90;;;;;;6203761;28;20244;-64
2022/03/27 12:29:52;;;;;;;20.83;18.93;;;26.50;19.90;;;;;;6204771;28;20237;-63
2022/03/27 12:32:56;;;;;;;23.50;20.10;;;26.60;19.60;;;;;;6202846;28;20252;-60
2022/03/27 12:36:05;;;;;;;20.37;18.40;;;26.60;19.50;;;;;;6203814;28;20236;-64
2022/03/27 12:39:13;;;;;;;22.10;19.00;;;26.60;19.60;;;;;;6203699;28;20237;-66
2022/03/27 12:42:36;;;;;;;22.13;19.90;;;26.70;19.90;;;;;;6203415;28;20233;-61
2022/03/27 12:45:41;;;;;;;25.50;20.53;;;26.60;20.20;;;;;;6202966;28;20233;-63
2022/03/27 12:48:56;;;;;;;21.90;19.33;;;26.10;20.30;;;;;;6202922;28;20241;-63
2022/03/27 12:51:59;;;;;;;23.03;20.23;;;25.60;21.10;;;;;;6203086;28;20225;-62
2022/03/27 12:55:05;;;;;;;23.07;20.40;;;25.10;21.20;;;;;;6198451;28;20205;-63
2022/03/27 12:58:11;;;;;;;21.87;19.67;;;25.00;21.30;;;;;;6203339;28;20197;-63
2022/03/27 13:01:18;;;;;;;21.90;18.40;;;25.10;21.30;;;;;;6203047;28;20200;-63
2022/03/27 13:04:22;;;;;;;20.03;18.03;;;25.30;21.20;;;;;;6203224;28;20233;-62
2022/03/27 13:07:52;;;;;;;19.47;17.47;;;25.30;21.20;;;;;;6203857;28;20240;-61
2022/03/27 13:10:59;;;;;;;19.70;17.60;;;25.30;21.20;;;;;;6195246;28;20237;-62
2022/03/27 13:14:03;;;;;;;21.17;18.93;;;25.00;21.30;;;;;;6200374;28;20237;-61
2022/03/27 13:17:15;;;;;;;20.73;18.50;;;24.70;21.70;;;;;;6202743;28;20229;-62
2022/03/27 13:20:30;;;;;;;22.27;19.97;;;24.60;21.90;;;;;;6202665;28;20240;-61
2022/03/27 13:23:33;;;;;;;19.50;17.60;;;24.80;21.70;;;;;;6202230;28;20260;-62
2022/03/27 13:26:39;;;;;;;21.60;19.30;;;24.80;21.80;;;;;;6202257;28;20236;-65
2022/03/27 13:29:44;;;;;;;23.00;19.40;;;24.70;22.40;;;;;;6202245;28;20229;-66
2022/03/27 13:32:47;;;;;;;21.63;19.33;;;24.50;22.30;;;;;;6202989;28;20704;-65
2022/03/27 13:35:50;;;;;;;21.47;19.23;;;24.10;22.70;;;;;;6202782;28;20658;-61
2022/03/27 13:38:53;;;;;;;19.37;17.30;;;23.50;22.70;;;;;;6202306;28;20677;-61
2022/03/27 13:45:19;;;;;;;23.07;18.30;;;23.60;23.10;;;;;;6203896;28;20238;-62
2022/03/27 13:48:22;;;;;;;22.00;19.40;;;23.50;23.40;;;;;;6205093;28;20233;-62
2022/03/27 13:51:25;;;;;;;20.30;17.23;;;23.20;23.30;;;;;;6204190;28;20237;-63
2022/03/27 13:54:28;;;;;;;25.63;18.60;;;23.10;23.50;;;;;;6203334;28;20230;-62
2022/03/27 13:57:32;;;;;;;22.60;18.47;;;22.80;23.50;;;;;;6203381;28;20234;-61
2022/03/27 14:00:36;;;;;;;20.43;18.40;;;22.90;23.90;;;;;;6202757;28;20252;-61
2022/03/27 14:03:40;;;;;;;20.43;18.33;;;22.90;23.70;;;;;;6198435;28;20234;-62
2022/03/27 14:06:45;;;;;;;21.13;18.67;;;23.00;23.80;;;;;;6193397;28;20576;-61
2022/03/27 14:09:48;;;;;;;19.77;17.77;;;23.00;23.60;;;;;;6201252;28;20234;-62
2022/03/27 14:12:51;;;;;;;21.00;17.43;;;22.90;23.40;;;;;;6201140;28;20245;-60
2022/03/27 14:15:56;;;;;;;23.20;17.30;;;22.80;23.40;;;;;;6202413;28;20367;-60
2022/03/27 14:18:59;;;;;;;18.20;16.20;;;22.80;24.20;;;;;;6226800;28;20233;-60
2022/03/27 14:22:03;;;;;;;19.63;16.97;;;22.40;25.00;;;;;;6226743;28;20225;-60
2022/03/27 14:25:10;;;;;;;19.43;17.53;;;22.40;24.80;;;;;;6226191;28;20571;-61
2022/03/27 14:28:14;;;;;;;22.27;18.33;;;22.40;24.90;;;;;;6227489;28;20225;-63
2022/03/27 14:31:18;;;;;;;17.20;15.50;;;22.20;25.00;;;;;;6224989;28;20232;-63
2022/03/27 14:34:22;;;;;;;18.67;16.73;;;22.40;24.90;;;;;;6225624;28;20240;-60
2022/03/27 14:37:25;;;;;;;19.03;16.20;;;22.40;24.90;;;;;;6224995;28;20697;-63
2022/03/27 14:40:28;;;;;;;19.87;17.60;;;22.40;24.90;;;;;;6225313;28;20233;-60
2022/03/27 14:43:32;;;;;;;17.87;16.00;;;22.40;24.90;;;;;;6225430;28;20241;-61
2022/03/27 14:46:38;;;;;;;17.67;15.70;;;22.40;25.20;;;;;;6225204;28;20240;-60
2022/03/27 14:49:42;;;;;;;18.07;16.07;;;22.30;25.80;;;;;;6213698;28;20224;-60
2022/03/27 14:52:45;;;;;;;17.83;15.90;;;21.80;26.10;;;;;;6209131;28;20280;-60
2022/03/27 14:55:59;;;;;;;22.97;18.17;;;21.70;26.10;;;;;;6209163;28;20558;-60
2022/03/27 14:59:04;;;;;;;19.83;16.50;;;21.60;26.70;;;;;;6213590;28;20654;-60
2022/03/27 15:02:09;;;;;;;18.80;15.27;;;21.40;26.80;;;;;;6216155;28;20805;-60
2022/03/27 15:05:12;;;;;;;20.10;15.40;;;21.40;26.90;;;;;;6203905;28;20245;-60
2022/03/27 15:08:15;;;;;;;21.23;16.80;;;21.30;27.50;;;;;;6218410;28;20244;-60
2022/03/27 15:11:19;;;;;;;18.00;14.73;;;21.20;26.70;;;;;;6229958;28;20588;-60
2022/03/27 15:14:22;;;;;;;18.17;16.27;;;21.30;26.70;;;;;;6218825;28;20623;-60
2022/03/27 15:17:27;;;;;;;19.13;15.60;;;21.30;26.60;;;;;;6229668;28;20708;-60
2022/03/27 15:20:31;;;;;;;18.23;15.93;;;21.30;26.50;;;;;;6231081;28;20240;-59
2022/03/27 15:23:35;;;;;;;22.77;16.57;;;21.30;26.60;;;;;;6230964;28;20249;-60
2022/03/27 15:26:38;;;;;;;17.67;15.77;;;21.20;26.80;;;;;;6229839;28;20233;-62
2022/03/27 15:29:41;;;;;;;20.80;16.10;;;21.20;26.90;;;;;;6229137;28;20685;-61
2022/03/27 15:32:46;;;;;;;20.50;15.77;;;21.20;27.00;;;;;;6229179;28;20245;-63
2022/03/27 15:35:49;;;;;;;18.17;15.50;;;21.20;27.20;;;;;;6229385;28;20302;-65
2022/03/27 15:38:52;;;;;;;21.53;17.00;;;21.20;27.10;;;;;;6229191;28;20244;-65
2022/03/27 15:41:56;;;;;;;18.43;16.10;;;21.30;27.40;;;;;;6228989;28;20562;-64
2022/03/27 15:44:59;;;;;;;18.67;16.70;;;21.30;27.40;;;;;;6228473;28;20237;-65
2022/03/27 15:48:04;;;;;;;20.47;14.90;;;21.30;27.40;;;;;;6228901;28;20256;-64
2022/03/27 15:51:07;;;;;;;21.37;16.60;;;21.20;27.40;;;;;;6228770;28;20225;-63
2022/03/27 15:54:11;;;;;;;16.40;14.60;;;21.10;27.70;;;;;;6225336;28;20229;-64